sensor_id;sensor_type;location;lat;lon;timestamp;P1;durP1;ratioP1;P2;durP2;ratioP2
28007;SDS011;15333;50.010;20.020;2022-08-03T00:01:49;74.90;;;56.33;;
28007;SDS011;15333;50.010;20.020;2022-08-03T00:04:50;78.15;;;54.92;;
28007;SDS011;15333;50.010;20.020;2022-08-03T00:07:51;72.13;;;55.83;;
28007;SDS011;15333;50.010;20.020;2022-08-03T00:10:52;72.10;;;56.20;;
28007;SDS011;15333;50.010;20.020;2022-08-03T00:13:53;80.45;;;58.47;;
28007;SDS011;15333;50.010;20.020;2022-08-03T00:16:54;83.30;;;60.60;;
28007;SDS011;15333;50.010;20.020;2022-08-03T00:19:54;86.82;;;61.65;;
28007;SDS011;15333;50.010;20.020;2022-08-03T00:22:56;85.88;;;61.67;;
28007;SDS011;15333;50.010;20.020;2022-08-03T00:26:01;84.25;;;62.45;;
28007;SDS011;15333;50.010;20.020;2022-08-03T00:29:02;86.30;;;62.20;;
28007;SDS011;15333;50.010;20.020;2022-08-03T00:32:03;90.97;;;64.78;;
28007;SDS011;15333;50.010;20.020;2022-08-03T00:35:04;97.07;;;66.07;;
28007;SDS011;15333;50.010;20.020;2022-08-03T00:38:06;97.45;;;68.35;;
28007;SDS011;15333;50.010;20.020;2022-08-03T00:41:07;94.32;;;67.43;;
28007;SDS011;15333;50.010;20.020;2022-08-03T00:44:07;83.30;;;61.55;;
28007;SDS011;15333;50.010;20.020;2022-08-03T00:47:09;84.20;;;61.63;;
28007;SDS011;15333;50.010;20.020;2022-08-03T00:50:10;79.85;;;60.65;;
28007;SDS011;15333;50.010;20.020;2022-08-03T00:53:12;69.28;;;54.83;;
28007;SDS011;15333;50.010;20.020;2022-08-03T00:56:14;70.88;;;54.55;;
28007;SDS011;15333;50.010;20.020;2022-08-03T00:59:16;70.78;;;54.50;;
28007;SDS011;15333;50.010;20.020;2022-08-03T01:02:17;70.15;;;54.10;;
28007;SDS011;15333;50.010;20.020;2022-08-03T01:05:21;63.88;;;51.33;;
28007;SDS011;15333;50.010;20.020;2022-08-03T01:12:12;67.70;;;52.55;;
28007;SDS011;15333;50.010;20.020;2022-08-03T01:15:28;68.65;;;52.78;;
28007;SDS011;15333;50.010;20.020;2022-08-03T01:18:46;62.67;;;46.25;;
28007;SDS011;15333;50.010;20.020;2022-08-03T01:31:54;69.45;;;51.63;;
28007;SDS011;15333;50.010;20.020;2022-08-03T01:35:08;72.00;;;51.58;;
28007;SDS011;15333;50.010;20.020;2022-08-03T01:38:14;70.78;;;49.97;;
28007;SDS011;15333;50.010;20.020;2022-08-03T01:41:29;73.70;;;55.13;;
28007;SDS011;15333;50.010;20.020;2022-08-03T01:44:34;86.72;;;61.35;;
28007;SDS011;15333;50.010;20.020;2022-08-03T01:47:38;85.30;;;60.22;;
28007;SDS011;15333;50.010;20.020;2022-08-03T01:50:41;72.60;;;53.20;;
28007;SDS011;15333;50.010;20.020;2022-08-03T01:53:44;76.55;;;52.63;;
28007;SDS011;15333;50.010;20.020;2022-08-03T01:56:48;78.22;;;54.78;;
28007;SDS011;15333;50.010;20.020;2022-08-03T01:59:52;80.60;;;56.72;;
28007;SDS011;15333;50.010;20.020;2022-08-03T02:02:56;85.43;;;57.83;;
28007;SDS011;15333;50.010;20.020;2022-08-03T02:05:58;78.30;;;56.55;;
28007;SDS011;15333;50.010;20.020;2022-08-03T02:09:00;85.50;;;60.88;;
28007;SDS011;15333;50.010;20.020;2022-08-03T02:12:02;78.80;;;56.45;;
28007;SDS011;15333;50.010;20.020;2022-08-03T02:15:07;84.32;;;59.47;;
28007;SDS011;15333;50.010;20.020;2022-08-03T02:18:09;73.82;;;53.72;;
28007;SDS011;15333;50.010;20.020;2022-08-03T02:21:11;74.88;;;53.40;;
28007;SDS011;15333;50.010;20.020;2022-08-03T02:24:13;82.70;;;58.75;;
28007;SDS011;15333;50.010;20.020;2022-08-03T02:27:21;80.57;;;58.85;;
28007;SDS011;15333;50.010;20.020;2022-08-03T02:30:25;87.43;;;60.20;;
28007;SDS011;15333;50.010;20.020;2022-08-03T02:33:31;85.10;;;61.13;;
28007;SDS011;15333;50.010;20.020;2022-08-03T02:36:36;87.40;;;59.30;;
28007;SDS011;15333;50.010;20.020;2022-08-03T02:39:40;94.50;;;65.22;;
28007;SDS011;15333;50.010;20.020;2022-08-03T02:42:43;100.63;;;66.78;;
28007;SDS011;15333;50.010;20.020;2022-08-03T02:45:47;97.25;;;65.88;;
28007;SDS011;15333;50.010;20.020;2022-08-03T02:48:49;101.80;;;66.72;;
28007;SDS011;15333;50.010;20.020;2022-08-03T02:51:52;103.72;;;67.85;;
28007;SDS011;15333;50.010;20.020;2022-08-03T02:54:59;102.68;;;68.38;;
28007;SDS011;15333;50.010;20.020;2022-08-03T02:58:02;115.18;;;72.15;;
28007;SDS011;15333;50.010;20.020;2022-08-03T03:01:04;112.43;;;72.35;;
28007;SDS011;15333;50.010;20.020;2022-08-03T03:04:06;121.63;;;77.22;;
28007;SDS011;15333;50.010;20.020;2022-08-03T03:07:13;123.70;;;78.15;;
28007;SDS011;15333;50.010;20.020;2022-08-03T03:10:15;96.95;;;64.25;;
28007;SDS011;15333;50.010;20.020;2022-08-03T03:13:16;94.03;;;63.05;;
28007;SDS011;15333;50.010;20.020;2022-08-03T03:16:19;92.88;;;62.72;;
28007;SDS011;15333;50.010;20.020;2022-08-03T03:19:20;96.50;;;63.17;;
28007;SDS011;15333;50.010;20.020;2022-08-03T03:22:22;98.20;;;65.18;;
28007;SDS011;15333;50.010;20.020;2022-08-03T03:25:24;115.65;;;76.82;;
28007;SDS011;15333;50.010;20.020;2022-08-03T03:28:25;94.50;;;66.93;;
28007;SDS011;15333;50.010;20.020;2022-08-03T03:31:26;89.53;;;62.03;;
28007;SDS011;15333;50.010;20.020;2022-08-03T03:34:28;81.07;;;60.35;;
28007;SDS011;15333;50.010;20.020;2022-08-03T03:37:29;78.07;;;57.95;;
28007;SDS011;15333;50.010;20.020;2022-08-03T03:40:30;69.43;;;53.97;;
28007;SDS011;15333;50.010;20.020;2022-08-03T03:43:31;61.75;;;47.13;;
28007;SDS011;15333;50.010;20.020;2022-08-03T03:46:32;53.47;;;43.42;;
28007;SDS011;15333;50.010;20.020;2022-08-03T03:49:34;49.70;;;40.83;;
28007;SDS011;15333;50.010;20.020;2022-08-03T03:52:36;55.33;;;42.22;;
28007;SDS011;15333;50.010;20.020;2022-08-03T03:55:37;44.88;;;37.75;;
28007;SDS011;15333;50.010;20.020;2022-08-03T03:58:38;55.58;;;40.42;;
28007;SDS011;15333;50.010;20.020;2022-08-03T04:01:39;45.03;;;39.40;;
28007;SDS011;15333;50.010;20.020;2022-08-03T04:04:40;48.67;;;37.22;;
28007;SDS011;15333;50.010;20.020;2022-08-03T04:11:28;43.83;;;38.38;;
28007;SDS011;15333;50.010;20.020;2022-08-03T04:14:36;43.88;;;36.33;;
28007;SDS011;15333;50.010;20.020;2022-08-03T04:17:41;39.63;;;32.70;;
28007;SDS011;15333;50.010;20.020;2022-08-03T04:20:44;37.67;;;29.35;;
28007;SDS011;15333;50.010;20.020;2022-08-03T04:23:48;34.30;;;30.30;;
28007;SDS011;15333;50.010;20.020;2022-08-03T04:26:52;35.83;;;29.63;;
28007;SDS011;15333;50.010;20.020;2022-08-03T04:29:56;34.13;;;30.13;;
28007;SDS011;15333;50.010;20.020;2022-08-03T04:33:01;39.63;;;31.45;;
28007;SDS011;15333;50.010;20.020;2022-08-03T04:36:03;35.47;;;28.73;;
28007;SDS011;15333;50.010;20.020;2022-08-03T04:39:07;32.70;;;28.73;;
28007;SDS011;15333;50.010;20.020;2022-08-03T04:42:13;30.00;;;26.52;;
28007;SDS011;15333;50.010;20.020;2022-08-03T04:45:15;29.77;;;26.60;;
28007;SDS011;15333;50.010;20.020;2022-08-03T04:48:18;31.25;;;24.77;;
28007;SDS011;15333;50.010;20.020;2022-08-03T04:51:20;27.98;;;24.40;;
28007;SDS011;15333;50.010;20.020;2022-08-03T04:54:21;28.30;;;24.30;;
28007;SDS011;15333;50.010;20.020;2022-08-03T04:57:22;28.08;;;23.67;;
28007;SDS011;15333;50.010;20.020;2022-08-03T05:00:23;27.60;;;24.77;;
28007;SDS011;15333;50.010;20.020;2022-08-03T05:03:24;29.27;;;25.25;;
28007;SDS011;15333;50.010;20.020;2022-08-03T05:06:25;34.38;;;26.50;;
28007;SDS011;15333;50.010;20.020;2022-08-03T05:09:26;35.97;;;27.33;;
28007;SDS011;15333;50.010;20.020;2022-08-03T05:12:27;33.92;;;26.73;;
28007;SDS011;15333;50.010;20.020;2022-08-03T05:15:27;31.98;;;25.52;;
28007;SDS011;15333;50.010;20.020;2022-08-03T05:18:28;28.75;;;25.45;;
28007;SDS011;15333;50.010;20.020;2022-08-03T05:21:29;32.33;;;24.63;;
28007;SDS011;15333;50.010;20.020;2022-08-03T05:24:30;28.08;;;22.83;;
28007;SDS011;15333;50.010;20.020;2022-08-03T05:27:30;27.45;;;22.73;;
28007;SDS011;15333;50.010;20.020;2022-08-03T05:30:31;23.90;;;20.45;;
28007;SDS011;15333;50.010;20.020;2022-08-03T05:33:32;21.05;;;18.85;;
28007;SDS011;15333;50.010;20.020;2022-08-03T05:36:36;21.10;;;18.70;;
28007;SDS011;15333;50.010;20.020;2022-08-03T05:39:37;20.52;;;18.00;;
28007;SDS011;15333;50.010;20.020;2022-08-03T05:42:37;21.15;;;18.05;;
28007;SDS011;15333;50.010;20.020;2022-08-03T05:45:38;19.23;;;16.92;;
28007;SDS011;15333;50.010;20.020;2022-08-03T05:48:40;46.05;;;27.77;;
28007;SDS011;15333;50.010;20.020;2022-08-03T05:51:41;19.60;;;17.15;;
28007;SDS011;15333;50.010;20.020;2022-08-03T05:54:42;18.52;;;16.63;;
28007;SDS011;15333;50.010;20.020;2022-08-03T05:57:44;21.00;;;17.30;;
28007;SDS011;15333;50.010;20.020;2022-08-03T06:00:45;20.55;;;17.65;;
28007;SDS011;15333;50.010;20.020;2022-08-03T06:03:47;21.60;;;19.35;;
28007;SDS011;15333;50.010;20.020;2022-08-03T06:06:48;21.10;;;18.90;;
28007;SDS011;15333;50.010;20.020;2022-08-03T06:09:50;23.05;;;19.38;;
28007;SDS011;15333;50.010;20.020;2022-08-03T06:12:51;23.63;;;19.70;;
28007;SDS011;15333;50.010;20.020;2022-08-03T06:15:51;25.38;;;21.40;;
28007;SDS011;15333;50.010;20.020;2022-08-03T06:18:52;23.95;;;21.08;;
28007;SDS011;15333;50.010;20.020;2022-08-03T06:21:53;24.33;;;21.92;;
28007;SDS011;15333;50.010;20.020;2022-08-03T06:24:54;23.05;;;20.60;;
28007;SDS011;15333;50.010;20.020;2022-08-03T06:27:55;26.13;;;22.85;;
28007;SDS011;15333;50.010;20.020;2022-08-03T06:30:56;27.45;;;24.50;;
28007;SDS011;15333;50.010;20.020;2022-08-03T06:33:57;27.30;;;24.50;;
28007;SDS011;15333;50.010;20.020;2022-08-03T06:36:58;28.50;;;23.98;;
28007;SDS011;15333;50.010;20.020;2022-08-03T06:39:58;27.67;;;24.52;;
28007;SDS011;15333;50.010;20.020;2022-08-03T06:43:00;26.67;;;23.98;;
28007;SDS011;15333;50.010;20.020;2022-08-03T06:46:02;28.60;;;23.48;;
28007;SDS011;15333;50.010;20.020;2022-08-03T06:49:05;29.95;;;23.80;;
28007;SDS011;15333;50.010;20.020;2022-08-03T06:52:06;25.70;;;22.92;;
28007;SDS011;15333;50.010;20.020;2022-08-03T06:55:07;24.95;;;22.38;;
28007;SDS011;15333;50.010;20.020;2022-08-03T06:58:08;27.50;;;22.70;;
28007;SDS011;15333;50.010;20.020;2022-08-03T07:01:09;29.63;;;24.25;;
28007;SDS011;15333;50.010;20.020;2022-08-03T07:04:10;25.50;;;22.95;;
28007;SDS011;15333;50.010;20.020;2022-08-03T07:07:11;25.40;;;22.73;;
28007;SDS011;15333;50.010;20.020;2022-08-03T07:10:12;26.77;;;24.10;;
28007;SDS011;15333;50.010;20.020;2022-08-03T07:13:12;26.45;;;23.48;;
28007;SDS011;15333;50.010;20.020;2022-08-03T07:16:13;25.40;;;22.55;;
28007;SDS011;15333;50.010;20.020;2022-08-03T07:19:14;25.90;;;22.40;;
28007;SDS011;15333;50.010;20.020;2022-08-03T07:22:16;24.80;;;22.00;;
28007;SDS011;15333;50.010;20.020;2022-08-03T07:25:17;25.67;;;23.17;;
28007;SDS011;15333;50.010;20.020;2022-08-03T07:28:19;26.38;;;23.67;;
28007;SDS011;15333;50.010;20.020;2022-08-03T07:31:20;25.80;;;23.08;;
28007;SDS011;15333;50.010;20.020;2022-08-03T07:34:21;26.40;;;22.17;;
28007;SDS011;15333;50.010;20.020;2022-08-03T07:37:22;28.50;;;21.58;;
28007;SDS011;15333;50.010;20.020;2022-08-03T07:40:23;25.05;;;22.35;;
28007;SDS011;15333;50.010;20.020;2022-08-03T07:43:24;29.88;;;23.63;;
28007;SDS011;15333;50.010;20.020;2022-08-03T07:46:24;27.55;;;23.52;;
28007;SDS011;15333;50.010;20.020;2022-08-03T07:49:25;24.58;;;22.15;;
28007;SDS011;15333;50.010;20.020;2022-08-03T07:52:26;26.65;;;21.60;;
28007;SDS011;15333;50.010;20.020;2022-08-03T07:55:45;25.43;;;22.73;;
28007;SDS011;15333;50.010;20.020;2022-08-03T07:58:46;25.70;;;22.92;;
28007;SDS011;15333;50.010;20.020;2022-08-03T08:01:48;28.98;;;23.63;;
28007;SDS011;15333;50.010;20.020;2022-08-03T08:04:52;23.58;;;21.20;;
28007;SDS011;15333;50.010;20.020;2022-08-03T08:07:53;26.38;;;22.92;;
28007;SDS011;15333;50.010;20.020;2022-08-03T08:10:53;28.58;;;22.27;;
28007;SDS011;15333;50.010;20.020;2022-08-03T08:13:54;29.50;;;23.17;;
28007;SDS011;15333;50.010;20.020;2022-08-03T08:16:55;28.83;;;22.77;;
28007;SDS011;15333;50.010;20.020;2022-08-03T08:19:56;22.60;;;20.05;;
28007;SDS011;15333;50.010;20.020;2022-08-03T08:23:04;23.27;;;20.90;;
28007;SDS011;15333;50.010;20.020;2022-08-03T08:26:07;23.45;;;21.02;;
28007;SDS011;15333;50.010;20.020;2022-08-03T08:29:08;24.35;;;21.33;;
28007;SDS011;15333;50.010;20.020;2022-08-03T08:32:08;24.10;;;21.70;;
28007;SDS011;15333;50.010;20.020;2022-08-03T08:35:10;24.00;;;21.42;;
28007;SDS011;15333;50.010;20.020;2022-08-03T08:38:11;22.55;;;20.15;;
28007;SDS011;15333;50.010;20.020;2022-08-03T08:41:13;23.52;;;21.08;;
28007;SDS011;15333;50.010;20.020;2022-08-03T08:44:14;24.13;;;21.40;;
28007;SDS011;15333;50.010;20.020;2022-08-03T08:47:16;23.48;;;21.02;;
28007;SDS011;15333;50.010;20.020;2022-08-03T08:50:19;24.80;;;21.27;;
28007;SDS011;15333;50.010;20.020;2022-08-03T08:53:22;23.88;;;21.48;;
28007;SDS011;15333;50.010;20.020;2022-08-03T08:56:26;23.60;;;21.23;;
28007;SDS011;15333;50.010;20.020;2022-08-03T08:59:27;23.58;;;19.90;;
28007;SDS011;15333;50.010;20.020;2022-08-03T09:02:31;21.42;;;18.95;;
28007;SDS011;15333;50.010;20.020;2022-08-03T09:05:32;20.85;;;18.70;;
28007;SDS011;15333;50.010;20.020;2022-08-03T09:08:34;21.77;;;19.15;;
28007;SDS011;15333;50.010;20.020;2022-08-03T09:11:34;20.95;;;17.63;;
28007;SDS011;15333;50.010;20.020;2022-08-03T09:14:36;20.02;;;18.05;;
28007;SDS011;15333;50.010;20.020;2022-08-03T09:17:39;19.13;;;17.13;;
28007;SDS011;15333;50.010;20.020;2022-08-03T09:20:40;19.13;;;17.15;;
28007;SDS011;15333;50.010;20.020;2022-08-03T09:23:48;16.90;;;15.13;;
28007;SDS011;15333;50.010;20.020;2022-08-03T09:26:51;16.35;;;14.75;;
28007;SDS011;15333;50.010;20.020;2022-08-03T09:29:53;15.15;;;13.75;;
28007;SDS011;15333;50.010;20.020;2022-08-03T09:32:59;16.95;;;14.80;;
28007;SDS011;15333;50.010;20.020;2022-08-03T09:36:01;16.42;;;14.82;;
28007;SDS011;15333;50.010;20.020;2022-08-03T09:39:03;16.55;;;15.00;;
28007;SDS011;15333;50.010;20.020;2022-08-03T09:42:09;15.45;;;13.05;;
28007;SDS011;15333;50.010;20.020;2022-08-03T09:45:26;16.05;;;14.32;;
28007;SDS011;15333;50.010;20.020;2022-08-03T09:48:28;16.38;;;13.40;;
28007;SDS011;15333;50.010;20.020;2022-08-03T09:51:30;13.65;;;11.65;;
28007;SDS011;15333;50.010;20.020;2022-08-03T09:54:31;14.60;;;11.70;;
28007;SDS011;15333;50.010;20.020;2022-08-03T09:57:32;18.30;;;11.70;;
28007;SDS011;15333;50.010;20.020;2022-08-03T10:00:32;16.13;;;12.13;;
28007;SDS011;15333;50.010;20.020;2022-08-03T10:03:57;12.23;;;9.20;;
28007;SDS011;15333;50.010;20.020;2022-08-03T10:07:05;10.13;;;9.23;;
28007;SDS011;15333;50.010;20.020;2022-08-03T10:10:08;13.25;;;10.90;;
28007;SDS011;15333;50.010;20.020;2022-08-03T10:13:10;12.65;;;11.45;;
28007;SDS011;15333;50.010;20.020;2022-08-03T10:16:13;14.15;;;11.07;;
28007;SDS011;15333;50.010;20.020;2022-08-03T10:19:14;12.48;;;11.23;;
28007;SDS011;15333;50.010;20.020;2022-08-03T10:22:22;11.65;;;10.55;;
28007;SDS011;15333;50.010;20.020;2022-08-03T10:25:26;12.13;;;10.57;;
28007;SDS011;15333;50.010;20.020;2022-08-03T10:28:33;15.13;;;11.00;;
28007;SDS011;15333;50.010;20.020;2022-08-03T10:31:37;12.88;;;10.02;;
28007;SDS011;15333;50.010;20.020;2022-08-03T10:34:41;11.20;;;10.00;;
28007;SDS011;15333;50.010;20.020;2022-08-03T10:37:43;14.60;;;10.07;;
28007;SDS011;15333;50.010;20.020;2022-08-03T10:40:52;11.38;;;10.05;;
28007;SDS011;15333;50.010;20.020;2022-08-03T10:44:07;14.80;;;10.98;;
28007;SDS011;15333;50.010;20.020;2022-08-03T10:47:12;9.70;;;8.60;;
28007;SDS011;15333;50.010;20.020;2022-08-03T10:50:14;9.20;;;8.40;;
28007;SDS011;15333;50.010;20.020;2022-08-03T10:53:15;8.98;;;8.13;;
28007;SDS011;15333;50.010;20.020;2022-08-03T11:03:01;9.35;;;8.18;;
28007;SDS011;15333;50.010;20.020;2022-08-03T11:06:16;9.88;;;8.98;;
28007;SDS011;15333;50.010;20.020;2022-08-03T11:09:26;9.20;;;8.40;;
28007;SDS011;15333;50.010;20.020;2022-08-03T11:12:41;9.15;;;8.20;;
28007;SDS011;15333;50.010;20.020;2022-08-03T11:15:44;11.48;;;10.32;;
28007;SDS011;15333;50.010;20.020;2022-08-03T11:18:54;12.45;;;10.30;;
28007;SDS011;15333;50.010;20.020;2022-08-03T11:21:56;14.40;;;11.13;;
28007;SDS011;15333;50.010;20.020;2022-08-03T11:24:58;14.98;;;10.73;;
28007;SDS011;15333;50.010;20.020;2022-08-03T11:28:23;11.65;;;10.38;;
28007;SDS011;15333;50.010;20.020;2022-08-03T11:34:29;11.30;;;10.23;;
28007;SDS011;15333;50.010;20.020;2022-08-03T11:37:30;10.85;;;9.75;;
28007;SDS011;15333;50.010;20.020;2022-08-03T11:43:45;9.65;;;8.75;;
28007;SDS011;15333;50.010;20.020;2022-08-03T11:46:46;10.75;;;8.13;;
28007;SDS011;15333;50.010;20.020;2022-08-03T11:49:48;10.55;;;9.48;;
28007;SDS011;15333;50.010;20.020;2022-08-03T11:52:50;11.10;;;9.20;;
28007;SDS011;15333;50.010;20.020;2022-08-03T11:55:51;10.23;;;8.52;;
28007;SDS011;15333;50.010;20.020;2022-08-03T11:58:54;11.05;;;9.15;;
28007;SDS011;15333;50.010;20.020;2022-08-03T12:02:06;10.70;;;9.70;;
28007;SDS011;15333;50.010;20.020;2022-08-03T12:05:07;11.23;;;9.43;;
28007;SDS011;15333;50.010;20.020;2022-08-03T12:08:09;12.40;;;9.02;;
28007;SDS011;15333;50.010;20.020;2022-08-03T12:11:12;9.82;;;8.05;;
28007;SDS011;15333;50.010;20.020;2022-08-03T12:14:15;10.27;;;8.15;;
28007;SDS011;15333;50.010;20.020;2022-08-03T12:17:17;8.50;;;7.80;;
28007;SDS011;15333;50.010;20.020;2022-08-03T12:20:22;9.02;;;8.15;;
28007;SDS011;15333;50.010;20.020;2022-08-03T12:23:25;12.45;;;9.57;;
28007;SDS011;15333;50.010;20.020;2022-08-03T12:26:27;11.05;;;9.43;;
28007;SDS011;15333;50.010;20.020;2022-08-03T12:29:29;11.38;;;8.90;;
28007;SDS011;15333;50.010;20.020;2022-08-03T12:32:30;10.98;;;9.10;;
28007;SDS011;15333;50.010;20.020;2022-08-03T12:35:31;9.95;;;8.95;;
28007;SDS011;15333;50.010;20.020;2022-08-03T12:38:32;9.65;;;8.80;;
28007;SDS011;15333;50.010;20.020;2022-08-03T12:41:35;9.25;;;8.05;;
28007;SDS011;15333;50.010;20.020;2022-08-03T12:44:38;9.85;;;8.85;;
28007;SDS011;15333;50.010;20.020;2022-08-03T12:47:58;8.85;;;7.95;;
28007;SDS011;15333;50.010;20.020;2022-08-03T12:51:07;8.73;;;7.93;;
28007;SDS011;15333;50.010;20.020;2022-08-03T12:54:20;8.80;;;7.95;;
28007;SDS011;15333;50.010;20.020;2022-08-03T12:57:22;8.00;;;7.40;;
28007;SDS011;15333;50.010;20.020;2022-08-03T13:00:23;10.88;;;7.80;;
28007;SDS011;15333;50.010;20.020;2022-08-03T13:03:27;9.68;;;7.60;;
28007;SDS011;15333;50.010;20.020;2022-08-03T13:06:28;10.90;;;7.28;;
28007;SDS011;15333;50.010;20.020;2022-08-03T13:09:29;7.22;;;6.63;;
28007;SDS011;15333;50.010;20.020;2022-08-03T13:12:46;7.97;;;7.28;;
28007;SDS011;15333;50.010;20.020;2022-08-03T13:15:48;9.63;;;7.60;;
28007;SDS011;15333;50.010;20.020;2022-08-03T13:18:50;11.85;;;9.23;;
28007;SDS011;15333;50.010;20.020;2022-08-03T13:21:52;12.23;;;8.93;;
28007;SDS011;15333;50.010;20.020;2022-08-03T13:24:54;9.25;;;8.40;;
28007;SDS011;15333;50.010;20.020;2022-08-03T13:27:57;9.85;;;8.95;;
28007;SDS011;15333;50.010;20.020;2022-08-03T13:30:57;10.00;;;9.00;;
28007;SDS011;15333;50.010;20.020;2022-08-03T13:33:58;10.32;;;9.32;;
28007;SDS011;15333;50.010;20.020;2022-08-03T13:36:59;11.52;;;9.13;;
28007;SDS011;15333;50.010;20.020;2022-08-03T13:40:00;10.23;;;9.23;;
28007;SDS011;15333;50.010;20.020;2022-08-03T13:43:03;19.30;;;9.45;;
28007;SDS011;15333;50.010;20.020;2022-08-03T13:46:04;9.02;;;8.25;;
28007;SDS011;15333;50.010;20.020;2022-08-03T13:49:05;17.58;;;8.77;;
28007;SDS011;15333;50.010;20.020;2022-08-03T13:52:07;9.23;;;8.43;;
28007;SDS011;15333;50.010;20.020;2022-08-03T13:55:07;11.30;;;10.25;;
28007;SDS011;15333;50.010;20.020;2022-08-03T13:58:09;12.23;;;9.23;;
28007;SDS011;15333;50.010;20.020;2022-08-03T14:01:11;11.05;;;8.50;;
28007;SDS011;15333;50.010;20.020;2022-08-03T14:04:12;9.65;;;8.73;;
28007;SDS011;15333;50.010;20.020;2022-08-03T14:07:13;12.57;;;8.93;;
28007;SDS011;15333;50.010;20.020;2022-08-03T14:10:14;11.68;;;9.65;;
28007;SDS011;15333;50.010;20.020;2022-08-03T14:13:16;10.02;;;9.13;;
28007;SDS011;15333;50.010;20.020;2022-08-03T14:16:17;10.23;;;9.23;;
28007;SDS011;15333;50.010;20.020;2022-08-03T14:19:18;10.30;;;9.27;;
28007;SDS011;15333;50.010;20.020;2022-08-03T14:22:19;10.48;;;8.70;;
28007;SDS011;15333;50.010;20.020;2022-08-03T14:25:20;10.10;;;8.98;;
28007;SDS011;15333;50.010;20.020;2022-08-03T14:28:22;10.75;;;9.38;;
28007;SDS011;15333;50.010;20.020;2022-08-03T14:31:23;13.35;;;8.38;;
28007;SDS011;15333;50.010;20.020;2022-08-03T14:34:25;10.30;;;9.30;;
28007;SDS011;15333;50.010;20.020;2022-08-03T14:37:26;9.73;;;8.43;;
28007;SDS011;15333;50.010;20.020;2022-08-03T14:40:28;10.88;;;9.13;;
28007;SDS011;15333;50.010;20.020;2022-08-03T14:43:28;12.55;;;9.45;;
28007;SDS011;15333;50.010;20.020;2022-08-03T14:46:30;10.48;;;9.15;;
28007;SDS011;15333;50.010;20.020;2022-08-03T14:49:31;13.13;;;9.05;;
28007;SDS011;15333;50.010;20.020;2022-08-03T14:52:32;10.05;;;9.07;;
28007;SDS011;15333;50.010;20.020;2022-08-03T14:55:33;11.07;;;8.82;;
28007;SDS011;15333;50.010;20.020;2022-08-03T14:58:34;11.77;;;9.05;;
28007;SDS011;15333;50.010;20.020;2022-08-03T15:01:35;12.35;;;8.88;;
28007;SDS011;15333;50.010;20.020;2022-08-03T15:04:36;9.70;;;8.30;;
28007;SDS011;15333;50.010;20.020;2022-08-03T15:07:37;10.25;;;8.73;;
28007;SDS011;15333;50.010;20.020;2022-08-03T15:10:38;13.48;;;10.60;;
28007;SDS011;15333;50.010;20.020;2022-08-03T15:13:39;9.85;;;8.95;;
28007;SDS011;15333;50.010;20.020;2022-08-03T15:16:40;10.38;;;9.20;;
28007;SDS011;15333;50.010;20.020;2022-08-03T15:19:41;15.68;;;8.88;;
28007;SDS011;15333;50.010;20.020;2022-08-03T15:22:42;10.23;;;8.23;;
28007;SDS011;15333;50.010;20.020;2022-08-03T15:25:44;9.90;;;9.00;;
28007;SDS011;15333;50.010;20.020;2022-08-03T15:28:45;9.90;;;9.00;;
28007;SDS011;15333;50.010;20.020;2022-08-03T15:31:46;9.38;;;8.48;;
28007;SDS011;15333;50.010;20.020;2022-08-03T15:34:47;13.93;;;9.38;;
28007;SDS011;15333;50.010;20.020;2022-08-03T15:37:48;8.98;;;8.07;;
28007;SDS011;15333;50.010;20.020;2022-08-03T15:40:49;9.85;;;8.95;;
28007;SDS011;15333;50.010;20.020;2022-08-03T15:43:53;9.40;;;8.50;;
28007;SDS011;15333;50.010;20.020;2022-08-03T15:46:54;9.90;;;8.90;;
28007;SDS011;15333;50.010;20.020;2022-08-03T15:49:55;11.05;;;9.38;;
28007;SDS011;15333;50.010;20.020;2022-08-03T15:52:56;9.95;;;8.48;;
28007;SDS011;15333;50.010;20.020;2022-08-03T15:55:57;9.63;;;8.60;;
28007;SDS011;15333;50.010;20.020;2022-08-03T15:58:59;9.98;;;9.02;;
28007;SDS011;15333;50.010;20.020;2022-08-03T16:02:00;9.32;;;8.43;;
28007;SDS011;15333;50.010;20.020;2022-08-03T16:05:01;12.30;;;8.18;;
28007;SDS011;15333;50.010;20.020;2022-08-03T16:08:02;10.13;;;8.55;;
28007;SDS011;15333;50.010;20.020;2022-08-03T16:11:03;8.63;;;7.85;;
28007;SDS011;15333;50.010;20.020;2022-08-03T16:14:04;8.38;;;7.53;;
28007;SDS011;15333;50.010;20.020;2022-08-03T16:17:05;8.25;;;7.55;;
28007;SDS011;15333;50.010;20.020;2022-08-03T16:20:07;9.25;;;8.43;;
28007;SDS011;15333;50.010;20.020;2022-08-03T16:23:09;9.80;;;8.05;;
28007;SDS011;15333;50.010;20.020;2022-08-03T16:26:11;9.30;;;8.40;;
28007;SDS011;15333;50.010;20.020;2022-08-03T16:29:12;8.68;;;7.80;;
28007;SDS011;15333;50.010;20.020;2022-08-03T16:32:12;8.80;;;8.00;;
28007;SDS011;15333;50.010;20.020;2022-08-03T16:35:14;10.40;;;8.52;;
28007;SDS011;15333;50.010;20.020;2022-08-03T16:38:15;11.70;;;8.50;;
28007;SDS011;15333;50.010;20.020;2022-08-03T16:41:16;9.60;;;8.63;;
28007;SDS011;15333;50.010;20.020;2022-08-03T16:44:17;11.13;;;7.82;;
28007;SDS011;15333;50.010;20.020;2022-08-03T16:47:19;8.15;;;7.43;;
28007;SDS011;15333;50.010;20.020;2022-08-03T16:50:19;8.95;;;8.05;;
28007;SDS011;15333;50.010;20.020;2022-08-03T16:53:21;8.00;;;7.32;;
28007;SDS011;15333;50.010;20.020;2022-08-03T16:56:21;10.75;;;8.45;;
28007;SDS011;15333;50.010;20.020;2022-08-03T16:59:22;8.18;;;7.45;;
28007;SDS011;15333;50.010;20.020;2022-08-03T17:02:24;8.40;;;7.60;;
28007;SDS011;15333;50.010;20.020;2022-08-03T17:05:26;8.50;;;7.60;;
28007;SDS011;15333;50.010;20.020;2022-08-03T17:08:28;9.15;;;8.25;;
28007;SDS011;15333;50.010;20.020;2022-08-03T17:11:29;11.82;;;8.38;;
28007;SDS011;15333;50.010;20.020;2022-08-03T17:14:30;12.75;;;8.18;;
28007;SDS011;15333;50.010;20.020;2022-08-03T17:17:33;8.80;;;7.95;;
28007;SDS011;15333;50.010;20.020;2022-08-03T17:20:36;9.23;;;8.32;;
28007;SDS011;15333;50.010;20.020;2022-08-03T17:27:02;11.40;;;8.85;;
28007;SDS011;15333;50.010;20.020;2022-08-03T17:30:11;9.20;;;8.27;;
28007;SDS011;15333;50.010;20.020;2022-08-03T17:33:14;9.25;;;8.32;;
28007;SDS011;15333;50.010;20.020;2022-08-03T17:36:15;10.20;;;9.02;;
28007;SDS011;15333;50.010;20.020;2022-08-03T17:39:20;13.80;;;9.63;;
28007;SDS011;15333;50.010;20.020;2022-08-03T17:42:22;12.63;;;9.60;;
28007;SDS011;15333;50.010;20.020;2022-08-03T17:45:23;13.48;;;10.10;;
28007;SDS011;15333;50.010;20.020;2022-08-03T17:48:24;10.63;;;9.50;;
28007;SDS011;15333;50.010;20.020;2022-08-03T17:51:48;11.45;;;9.68;;
28007;SDS011;15333;50.010;20.020;2022-08-03T17:55:08;18.35;;;10.68;;
28007;SDS011;15333;50.010;20.020;2022-08-03T17:58:16;14.98;;;10.88;;
28007;SDS011;15333;50.010;20.020;2022-08-03T18:01:25;17.48;;;11.13;;
28007;SDS011;15333;50.010;20.020;2022-08-03T18:05:06;16.70;;;11.07;;
28007;SDS011;15333;50.010;20.020;2022-08-03T18:08:07;12.98;;;11.32;;
28007;SDS011;15333;50.010;20.020;2022-08-03T18:11:12;12.60;;;11.25;;
28007;SDS011;15333;50.010;20.020;2022-08-03T18:14:23;17.52;;;12.23;;
28007;SDS011;15333;50.010;20.020;2022-08-03T18:17:45;15.40;;;13.43;;